CheckWX is a tool to help pilots better visualize weather data.  It is not intended as a substitute for an official pre-flight weather briefing.

21:39:17 UTC

CYYL TAF
Lynn Lake Airport
Lynn Lake, Canada
TAF CYYL 201838Z 2019/2107 27012G22KT P6SM SCT210 BECMG 2022/2024 31012G22KT RMK FCST BASED ON AUTO OBS. NXT FCST BY 210100Z

Mar-20@
19:00 UTC

Mar-20 @ 19:00 UTC

Mar-20@
22:00 UTC

Mar-20 @ 22:00 UTC

TAF CYYL 201838Z 2019/2107 27012G22KT P6SM SCT210
Wind
  • 270° at 12 KTS
  • {Gusting to 22 KTS
Cloud Levels
  • Scattered at 21,000' AGL

Mar-20@
22:00 UTC

Mar-20 @ 22:00 UTC

Mar-21@
07:00 UTC

Mar-21 @ 07:00 UTC

BECMG 2022/2024 31012G22KT RMK FCST BASED ON AUTO OBS. NXT FCST BY 210100Z

Becoming

Becoming Conditions expected by Thu, Mar 21, 2019 @ 00:00 UTC

Wind
  • 310° at 12 KTS
  • {Gusting to 22 KTS
Cloud Levels
  • Scattered at 21,000' AGL